createdAt,value
2023-01-06T00:01:13.274Z,5.89
2023-01-06T00:03:41.734Z,5.84
2023-01-06T00:06:13.980Z,5.88
2023-01-06T00:08:42.394Z,5.93
2023-01-06T00:11:12.213Z,6.06
2023-01-06T00:13:41.254Z,6.06
2023-01-06T00:16:11.261Z,6.03
2023-01-06T00:18:40.111Z,5.98
2023-01-06T00:21:09.341Z,5.95
2023-01-06T00:23:39.993Z,5.98
2023-01-06T00:26:10.287Z,6.04
2023-01-06T00:28:39.016Z,6.04
2023-01-06T00:31:09.196Z,6.04
2023-01-06T00:33:38.085Z,6.04
2023-01-06T00:36:08.352Z,6.03
2023-01-06T00:38:38.728Z,6.03
2023-01-06T00:41:30.190Z,6.01
2023-01-06T00:43:59.370Z,5.94
2023-01-06T00:46:29.632Z,5.92
2023-01-06T00:49:07.345Z,5.98
2023-01-06T00:51:37.786Z,5.25
2023-01-06T00:54:08.596Z,5.82
2023-01-06T00:56:38.700Z,5.08
2023-01-06T00:59:09.863Z,5.72
2023-01-06T01:01:38.564Z,5.72
2023-01-06T01:04:07.523Z,5.75
2023-01-06T01:06:37.548Z,5.77
2023-01-06T01:09:08.407Z,5.65
2023-01-06T01:11:54.356Z,5.68
2023-01-06T01:14:23.138Z,5.64
2023-01-06T01:16:51.635Z,5.61
2023-01-06T01:19:20.549Z,5.60
2023-01-06T01:21:49.249Z,5.61
2023-01-06T01:24:20.948Z,5.62
2023-01-06T01:26:50.873Z,5.61
2023-01-06T01:29:20.493Z,5.14
2023-01-06T01:31:51.069Z,5.63
2023-01-06T01:34:20.037Z,5.66
2023-01-06T01:36:50.070Z,5.63
2023-01-06T01:39:21.764Z,5.64
2023-01-06T01:41:50.699Z,5.39
2023-01-06T01:44:58.212Z,5.59
2023-01-06T01:47:42.089Z,5.43
2023-01-06T01:50:17.698Z,5.57
2023-01-06T01:52:47.997Z,5.52
2023-01-06T01:55:19.832Z,5.48
2023-01-06T01:57:52.040Z,5.41
2023-01-06T02:00:21.914Z,5.32
2023-01-06T02:02:51.550Z,5.30
2023-01-06T02:05:26.341Z,5.34
2023-01-06T02:07:57.509Z,5.35
2023-01-06T02:10:27.367Z,5.33
2023-01-06T02:12:59.223Z,4.78
2023-01-06T02:15:30.006Z,5.26
2023-01-06T02:18:16.004Z,5.08
2023-01-06T02:20:55.536Z,5.19
2023-01-06T02:24:19.598Z,5.15
2023-01-06T02:27:25.122Z,5.09
2023-01-06T02:30:35.749Z,5.09
2023-01-06T02:33:21.100Z,5.03
2023-01-06T02:36:01.599Z,5.03
2023-01-06T02:38:42.316Z,4.97
2023-01-06T02:41:21.285Z,4.91
2023-01-06T02:43:59.642Z,4.16
2023-01-06T02:46:48.024Z,4.93
2023-01-06T02:49:26.638Z,4.89
2023-01-06T02:52:01.154Z,4.87
2023-01-06T02:54:39.392Z,4.82
2023-01-06T02:57:18.309Z,4.84
2023-01-06T02:59:53.701Z,4.80
2023-01-06T03:02:23.941Z,4.77
2023-01-06T03:04:57.795Z,4.79
2023-01-06T03:07:29.538Z,4.80
2023-01-06T03:10:01.849Z,4.78
2023-01-06T03:12:36.779Z,4.77
2023-01-06T03:15:05.843Z,4.72
2023-01-06T03:17:34.377Z,4.65
2023-01-06T03:20:06.696Z,4.63
2023-01-06T03:22:38.971Z,4.59
2023-01-06T03:25:08.922Z,4.71
2023-01-06T03:27:37.861Z,4.67
2023-01-06T03:30:10.040Z,4.43
2023-01-06T03:32:49.758Z,4.66
2023-01-06T03:35:43.041Z,4.63
2023-01-06T03:38:21.438Z,4.58
2023-01-06T03:40:56.477Z,4.36
2023-01-06T03:43:30.517Z,4.24
2023-01-06T03:46:13.332Z,4.39
2023-01-06T03:48:54.428Z,4.48
2023-01-06T03:51:42.030Z,4.45
2023-01-06T03:54:25.537Z,4.41
2023-01-06T03:57:06.272Z,4.35
2023-01-06T03:59:39.592Z,4.40
2023-01-06T04:02:09.561Z,4.43
2023-01-06T04:04:38.942Z,4.47
2023-01-06T04:07:09.053Z,4.46
2023-01-06T04:09:41.053Z,4.41
2023-01-06T04:12:32.760Z,4.41
2023-01-06T04:15:01.169Z,4.37
2023-01-06T04:17:29.488Z,4.42
2023-01-06T04:19:57.859Z,4.43
2023-01-06T04:22:29.289Z,4.42
2023-01-06T04:24:57.835Z,4.42
2023-01-06T04:27:26.248Z,4.40
2023-01-06T04:29:54.641Z,4.39
2023-01-06T04:32:23.696Z,4.40
2023-01-06T04:34:52.947Z,4.41
2023-01-06T04:37:21.571Z,4.40
2023-01-06T04:39:51.656Z,4.36
2023-01-06T04:42:19.972Z,4.26
2023-01-06T04:44:48.293Z,4.22
2023-01-06T04:47:16.748Z,4.23
2023-01-06T04:49:45.096Z,4.25
2023-01-06T04:52:13.452Z,4.25
2023-01-06T04:54:41.750Z,4.23
2023-01-06T04:57:11.549Z,4.20
2023-01-06T04:59:39.981Z,4.13
2023-01-06T05:02:08.417Z,4.12
2023-01-06T05:04:46.920Z,4.09
2023-01-06T05:07:16.070Z,4.02
2023-01-06T05:09:44.458Z,3.98
2023-01-06T05:12:14.277Z,3.92
2023-01-06T05:14:42.649Z,3.90
2023-01-06T05:17:11.074Z,3.86
2023-01-06T05:19:39.344Z,3.84
2023-01-06T05:22:07.748Z,3.87
2023-01-06T05:24:36.029Z,3.85
2023-01-06T05:27:04.876Z,3.89
2023-01-06T05:29:34.732Z,3.94
2023-01-06T05:32:03.443Z,3.93
2023-01-06T05:34:32.086Z,3.97
2023-01-06T05:37:00.464Z,3.94
2023-01-06T05:39:28.839Z,3.97
2023-01-06T05:41:57.186Z,3.93
2023-01-06T05:44:25.505Z,3.95
2023-01-06T05:46:56.308Z,3.96
2023-01-06T05:49:24.766Z,3.92
2023-01-06T05:51:53.216Z,3.89
2023-01-06T05:54:21.546Z,3.86
2023-01-06T05:56:49.941Z,3.88
2023-01-06T05:59:18.256Z,3.87
2023-01-06T06:01:46.610Z,3.88
2023-01-06T06:04:16.652Z,3.90
2023-01-06T06:06:45.077Z,3.87
2023-01-06T06:09:13.343Z,3.83
2023-01-06T06:11:41.714Z,3.78
2023-01-06T06:14:11.021Z,3.80
2023-01-06T06:16:39.435Z,3.78
2023-01-06T06:19:07.885Z,4.67
2023-01-06T06:21:37.718Z,4.23
2023-01-06T06:24:06.674Z,4.01
2023-01-06T06:26:35.050Z,3.92
2023-01-06T06:29:03.458Z,3.90
2023-01-06T06:31:31.827Z,3.92
2023-01-06T06:34:02.263Z,3.88
2023-01-06T06:36:32.024Z,3.85
2023-01-06T06:39:02.019Z,3.86
2023-01-06T06:41:30.409Z,3.85
2023-01-06T06:43:58.780Z,3.81
2023-01-06T06:46:27.121Z,3.79
2023-01-06T06:48:55.452Z,3.76
2023-01-06T06:51:24.590Z,3.79
2023-01-06T06:53:53.069Z,3.75
2023-01-06T06:56:23.116Z,3.66
2023-01-06T06:58:52.057Z,3.65
2023-01-06T07:01:21.898Z,3.63
2023-01-06T07:03:50.523Z,3.64
2023-01-06T07:06:22.557Z,3.65
2023-01-06T07:08:51.848Z,2.86
2023-01-06T07:11:20.887Z,3.60
2023-01-06T07:13:51.003Z,3.65
2023-01-06T07:16:20.089Z,3.64
2023-01-06T07:18:49.164Z,3.60
2023-01-06T07:21:17.543Z,3.58
2023-01-06T07:23:46.087Z,3.54
2023-01-06T07:26:15.876Z,3.54
2023-01-06T07:28:44.417Z,3.54
2023-01-06T07:31:14.228Z,3.55
2023-01-06T07:33:42.596Z,3.53
2023-01-06T07:36:11.235Z,3.56
2023-01-06T07:38:39.591Z,3.59
2023-01-06T07:41:08.025Z,3.61
2023-01-06T07:43:36.436Z,3.62
2023-01-06T07:46:04.968Z,3.61
2023-01-06T07:48:34.886Z,3.53
2023-01-06T07:51:03.446Z,3.59
2023-01-06T07:53:32.584Z,3.62
2023-01-06T07:56:00.959Z,3.65
2023-01-06T07:58:29.363Z,3.69
2023-01-06T08:00:57.729Z,3.80
2023-01-06T08:03:26.172Z,4.02
2023-01-06T08:05:55.939Z,4.25
2023-01-06T08:08:24.504Z,4.47
2023-01-06T08:10:52.987Z,4.57
2023-01-06T08:13:22.339Z,4.67
2023-01-06T08:15:52.168Z,4.72
2023-01-06T08:18:21.747Z,4.72
2023-01-06T08:20:50.118Z,4.78
2023-01-06T08:23:21.853Z,4.84
2023-01-06T08:25:50.527Z,4.79
2023-01-06T08:28:19.532Z,4.89
2023-01-06T08:30:49.192Z,4.94
2023-01-06T08:33:17.646Z,5.05
2023-01-06T08:35:47.697Z,5.15
2023-01-06T08:38:16.273Z,5.34
2023-01-06T08:40:46.103Z,5.69
2023-01-06T08:43:14.432Z,6.04
2023-01-06T08:45:42.966Z,6.50
2023-01-06T08:48:11.442Z,6.65
2023-01-06T08:50:40.175Z,7.30
2023-01-06T08:53:08.698Z,7.76
2023-01-06T08:55:40.065Z,8.03
2023-01-06T08:58:10.765Z,8.48
2023-01-06T09:00:41.890Z,8.35
2023-01-06T09:03:10.830Z,8.69
2023-01-06T09:05:39.195Z,8.74
2023-01-06T09:08:07.555Z,8.77
2023-01-06T09:10:38.517Z,8.80
2023-01-06T09:13:06.965Z,8.82
2023-01-06T09:15:40.644Z,8.92
2023-01-06T09:18:09.866Z,8.98
2023-01-06T09:20:38.733Z,9.06
2023-01-06T09:23:07.117Z,9.13
2023-01-06T09:25:35.461Z,9.14
2023-01-06T09:28:03.884Z,9.18
2023-01-06T09:30:32.188Z,9.26
2023-01-06T09:33:01.981Z,9.33
2023-01-06T09:35:30.401Z,9.42
2023-01-06T09:37:58.772Z,9.57
2023-01-06T09:40:34.567Z,9.52
2023-01-06T09:43:14.882Z,9.76
2023-01-06T09:45:47.645Z,9.83
2023-01-06T09:48:23.167Z,9.96
2023-01-06T09:50:55.501Z,9.97
2023-01-06T09:53:27.835Z,10.15
2023-01-06T09:56:00.704Z,10.12
2023-01-06T09:58:33.812Z,10.14
2023-01-06T10:01:08.212Z,10.17
2023-01-06T10:03:38.274Z,10.30
2023-01-06T10:06:27.185Z,10.47
2023-01-06T10:09:06.183Z,10.64
2023-01-06T10:11:45.639Z,10.63
2023-01-06T10:14:21.828Z,10.84
2023-01-06T10:17:07.335Z,10.92
2023-01-06T10:19:56.705Z,11.03
2023-01-06T10:22:37.204Z,11.09
2023-01-06T10:25:13.752Z,11.19
2023-01-06T10:27:43.765Z,11.33
2023-01-06T10:30:20.144Z,11.46
2023-01-06T10:32:51.152Z,11.40
2023-01-06T10:35:25.517Z,11.70
2023-01-06T10:37:57.463Z,11.80
2023-01-06T10:40:27.781Z,11.91
2023-01-06T10:43:03.515Z,12.00
2023-01-06T10:45:36.149Z,11.91
2023-01-06T10:48:06.966Z,12.15
2023-01-06T10:50:36.875Z,12.26
2023-01-06T10:53:06.387Z,12.38
2023-01-06T10:55:40.621Z,12.32
2023-01-06T10:58:19.736Z,11.96
2023-01-06T11:01:10.156Z,12.66
2023-01-06T11:03:42.780Z,12.57
2023-01-06T11:06:20.065Z,12.75
2023-01-06T11:08:48.831Z,12.71
2023-01-06T11:11:28.680Z,12.63
2023-01-06T11:14:00.471Z,12.86
2023-01-06T11:16:31.602Z,12.90
2023-01-06T11:19:02.645Z,12.93
2023-01-06T11:21:41.808Z,12.17
2023-01-06T11:24:19.462Z,12.84
2023-01-06T11:26:53.433Z,12.82
2023-01-06T11:29:31.540Z,12.26
2023-01-06T11:32:04.892Z,12.96
2023-01-06T11:34:34.331Z,13.06
2023-01-06T11:37:04.137Z,13.09
2023-01-06T11:39:36.058Z,13.13
2023-01-06T11:42:10.510Z,12.96
2023-01-06T11:44:41.597Z,13.20
2023-01-06T11:47:16.518Z,13.26
2023-01-06T11:49:49.789Z,13.23
2023-01-06T11:52:25.067Z,13.14
2023-01-06T11:55:03.980Z,13.25
2023-01-06T11:57:46.296Z,13.28
2023-01-06T12:00:33.053Z,13.35
2023-01-06T12:03:12.591Z,12.62
2023-01-06T12:05:49.048Z,13.40
2023-01-06T12:08:22.119Z,13.23
2023-01-06T12:10:55.309Z,12.65
2023-01-06T12:13:24.825Z,13.40
2023-01-06T12:16:01.408Z,13.43
2023-01-06T12:18:32.932Z,13.41
2023-01-06T12:21:04.051Z,13.26
2023-01-06T12:23:37.040Z,13.24
2023-01-06T12:26:16.923Z,13.30
2023-01-06T12:28:48.654Z,13.43
2023-01-06T12:31:21.738Z,13.43
2023-01-06T12:33:56.120Z,13.40
2023-01-06T12:36:31.223Z,13.19
2023-01-06T12:39:04.999Z,13.35
2023-01-06T12:41:39.390Z,13.42
2023-01-06T12:44:19.407Z,13.48
2023-01-06T12:46:56.894Z,13.41
2023-01-06T12:49:36.827Z,13.61
2023-01-06T12:52:09.686Z,13.48
2023-01-06T12:54:40.250Z,13.66
2023-01-06T12:57:24.517Z,13.64
2023-01-06T13:00:05.433Z,13.60
2023-01-06T13:02:50.080Z,13.36
2023-01-06T13:05:52.894Z,13.52
2023-01-06T13:08:37.963Z,13.49
2023-01-06T13:11:20.490Z,13.53
2023-01-06T13:13:57.373Z,13.55
2023-01-06T13:16:33.356Z,13.57
2023-01-06T13:19:11.216Z,13.43
2023-01-06T13:21:40.991Z,13.54
2023-01-06T13:24:34.951Z,13.52
2023-01-06T13:27:34.919Z,13.46
2023-01-06T13:30:18.271Z,13.45
2023-01-06T13:33:05.015Z,13.50
2023-01-06T13:35:59.925Z,13.50
2023-01-06T13:38:55.353Z,13.52
2023-01-06T13:41:28.419Z,13.53
2023-01-06T13:43:59.922Z,13.58
2023-01-06T13:46:30.921Z,13.61
2023-01-06T13:49:02.713Z,13.61
2023-01-06T13:51:34.931Z,12.99
2023-01-06T13:54:03.458Z,13.58
2023-01-06T13:56:33.883Z,13.39
2023-01-06T13:59:24.817Z,13.47
2023-01-06T14:01:55.018Z,13.48
2023-01-06T14:04:49.159Z,13.27
2023-01-06T14:07:33.123Z,13.42
2023-01-06T14:10:02.693Z,13.43
2023-01-06T14:12:32.356Z,13.43
2023-01-06T14:15:06.280Z,13.29
2023-01-06T14:17:41.502Z,13.45
2023-01-06T14:20:31.971Z,13.44
2023-01-06T14:23:02.968Z,13.44
2023-01-06T14:25:33.610Z,13.41
2023-01-06T14:28:26.773Z,13.38
2023-01-06T14:31:28.209Z,13.33
2023-01-06T14:33:59.802Z,13.33
2023-01-06T14:36:31.827Z,13.32
2023-01-06T14:39:03.669Z,13.33
2023-01-06T14:41:37.678Z,13.34
2023-01-06T14:44:12.913Z,13.17
2023-01-06T14:46:45.541Z,12.69
2023-01-06T14:49:22.408Z,13.00
2023-01-06T14:51:54.378Z,13.26
2023-01-06T14:54:26.796Z,13.24
2023-01-06T14:56:57.248Z,13.18
2023-01-06T14:59:27.284Z,13.19
2023-01-06T15:02:00.123Z,13.16
2023-01-06T15:04:32.345Z,12.96
2023-01-06T15:07:03.734Z,12.38
2023-01-06T15:09:32.188Z,13.09
2023-01-06T15:12:00.536Z,13.08
2023-01-06T15:14:31.577Z,13.06
2023-01-06T15:17:03.614Z,13.06
2023-01-06T15:19:34.297Z,13.06
2023-01-06T15:22:07.908Z,13.07
2023-01-06T15:24:39.624Z,12.93
2023-01-06T15:27:09.710Z,13.06
2023-01-06T15:29:38.175Z,13.05
2023-01-06T15:32:13.153Z,12.91
2023-01-06T15:34:47.136Z,12.84
2023-01-06T15:37:20.297Z,12.98
2023-01-06T15:39:50.512Z,12.97
2023-01-06T15:42:22.999Z,12.85
2023-01-06T15:44:58.727Z,12.91
2023-01-06T15:47:33.792Z,12.95
2023-01-06T15:50:06.958Z,12.95
2023-01-06T15:52:39.903Z,12.93
2023-01-06T15:55:20.424Z,12.76
2023-01-06T15:57:54.697Z,12.85
2023-01-06T16:00:25.243Z,12.79
2023-01-06T16:02:53.885Z,12.77
2023-01-06T16:05:42.497Z,12.76
2023-01-06T16:08:23.391Z,12.58
2023-01-06T16:11:09.811Z,12.67
2023-01-06T16:13:38.405Z,12.64
2023-01-06T16:16:25.441Z,12.65
2023-01-06T16:18:55.500Z,12.60
2023-01-06T16:21:28.295Z,12.45
2023-01-06T16:23:59.352Z,12.45
2023-01-06T16:26:30.822Z,12.54
2023-01-06T16:29:01.758Z,11.91
2023-01-06T16:31:33.826Z,12.52
2023-01-06T16:34:24.858Z,12.49
2023-01-06T16:36:57.201Z,12.27
2023-01-06T16:39:25.771Z,12.39
2023-01-06T16:42:41.150Z,12.36
2023-01-06T16:45:29.491Z,12.14
2023-01-06T16:47:58.129Z,12.23
2023-01-06T16:50:28.137Z,11.98
2023-01-06T16:53:03.642Z,12.07
2023-01-06T16:55:32.315Z,12.17
2023-01-06T16:58:01.933Z,12.17
2023-01-06T17:00:36.353Z,12.05
2023-01-06T17:03:14.733Z,12.04
2023-01-06T17:05:43.618Z,12.06
2023-01-06T17:08:17.669Z,11.90
2023-01-06T17:10:46.477Z,12.02
2023-01-06T17:13:34.125Z,11.94
2023-01-06T17:16:07.759Z,11.78
2023-01-06T17:18:36.110Z,11.91
2023-01-06T17:21:11.904Z,11.94
2023-01-06T17:23:47.364Z,11.95
2023-01-06T17:26:17.959Z,11.93
2023-01-06T17:28:47.305Z,11.89
2023-01-06T17:31:18.022Z,11.71
2023-01-06T17:33:47.609Z,11.83
2023-01-06T17:36:24.156Z,11.83
2023-01-06T17:38:54.045Z,11.81
2023-01-06T17:41:23.010Z,11.78
2023-01-06T17:43:51.369Z,11.74
2023-01-06T17:46:24.589Z,11.75
2023-01-06T17:49:08.954Z,11.67
2023-01-06T17:51:39.180Z,11.73
2023-01-06T17:54:34.035Z,11.65
2023-01-06T17:57:12.990Z,11.60
2023-01-06T17:59:42.697Z,11.60
2023-01-06T18:02:32.666Z,11.46
2023-01-06T18:05:09.471Z,11.59
2023-01-06T18:07:37.819Z,11.57
2023-01-06T18:10:15.472Z,11.56
2023-01-06T18:12:43.967Z,11.53
2023-01-06T18:15:31.097Z,11.50
2023-01-06T18:18:02.019Z,11.49
2023-01-06T18:20:30.866Z,11.51
2023-01-06T18:22:59.161Z,11.55
2023-01-06T18:25:29.032Z,11.53
2023-01-06T18:27:57.419Z,11.52
2023-01-06T18:30:28.110Z,11.34
2023-01-06T18:32:56.654Z,11.45
2023-01-06T18:35:28.819Z,11.45
2023-01-06T18:38:02.493Z,11.45
2023-01-06T18:40:32.751Z,11.42
2023-01-06T18:43:07.411Z,11.26
2023-01-06T18:45:37.428Z,11.28
2023-01-06T18:48:15.982Z,11.44
2023-01-06T18:50:46.484Z,11.23
2023-01-06T18:53:23.576Z,11.46
2023-01-06T18:55:55.348Z,11.44
2023-01-06T18:58:37.402Z,11.44
2023-01-06T19:01:17.027Z,11.36
2023-01-06T19:04:01.112Z,11.30
2023-01-06T19:06:38.124Z,10.44
2023-01-06T19:09:19.015Z,11.22
2023-01-06T19:12:01.414Z,11.11
2023-01-06T19:14:33.923Z,11.26
2023-01-06T19:17:03.620Z,11.26
2023-01-06T19:19:38.260Z,10.47
2023-01-06T19:22:22.953Z,11.10
2023-01-06T19:24:56.715Z,11.20
2023-01-06T19:27:47.701Z,11.18
2023-01-06T19:30:40.160Z,11.14
2023-01-06T19:33:26.932Z,11.14
2023-01-06T19:36:02.306Z,10.90
2023-01-06T19:38:32.443Z,10.99
2023-01-06T19:41:03.365Z,11.19
2023-01-06T19:43:35.353Z,11.17
2023-01-06T19:46:05.080Z,11.13
2023-01-06T19:48:38.753Z,11.19
2023-01-06T19:51:23.900Z,11.16
2023-01-06T19:53:55.799Z,11.07
2023-01-06T19:56:26.388Z,10.97
2023-01-06T19:59:00.758Z,11.12
2023-01-06T20:01:32.900Z,10.33
2023-01-06T20:04:03.229Z,11.11
2023-01-06T20:06:31.715Z,11.12
2023-01-06T20:09:01.052Z,11.12
2023-01-06T20:11:30.796Z,11.11
2023-01-06T20:14:00.846Z,10.97
2023-01-06T20:16:29.796Z,11.10
2023-01-06T20:18:58.570Z,11.06
2023-01-06T20:21:27.203Z,11.02
2023-01-06T20:23:58.754Z,11.04
2023-01-06T20:26:27.450Z,11.04
2023-01-06T20:28:55.895Z,11.05
2023-01-06T20:31:25.832Z,11.06
2023-01-06T20:33:56.211Z,11.06
2023-01-06T20:36:25.011Z,11.03
2023-01-06T20:38:55.346Z,11.02
2023-01-06T20:41:24.091Z,11.04
2023-01-06T20:43:53.094Z,11.03
2023-01-06T20:46:25.811Z,11.01
2023-01-06T20:48:54.243Z,11.01
2023-01-06T20:51:23.192Z,10.98
2023-01-06T20:53:52.499Z,10.96
2023-01-06T20:56:21.420Z,10.96
2023-01-06T20:58:49.928Z,10.96
2023-01-06T21:01:18.508Z,10.95
2023-01-06T21:03:48.523Z,10.94
2023-01-06T21:06:17.728Z,10.94
2023-01-06T21:08:46.897Z,10.92
2023-01-06T21:11:17.869Z,10.92
2023-01-06T21:13:48.342Z,10.90
2023-01-06T21:16:18.463Z,10.91
2023-01-06T21:18:48.547Z,10.89
2023-01-06T21:21:17.936Z,10.68
2023-01-06T21:23:47.280Z,10.91
2023-01-06T21:26:15.907Z,10.87
2023-01-06T21:28:44.449Z,10.71
2023-01-06T21:31:13.574Z,10.86
2023-01-06T21:33:42.233Z,10.84
2023-01-06T21:36:12.470Z,10.88
2023-01-06T21:38:41.040Z,10.90
2023-01-06T21:41:23.403Z,10.90
2023-01-06T21:43:52.533Z,10.86
2023-01-06T21:46:21.209Z,10.85
2023-01-06T21:48:49.981Z,10.80
2023-01-06T21:51:19.988Z,10.82
2023-01-06T21:53:49.030Z,10.83
2023-01-06T21:56:19.736Z,10.84
2023-01-06T21:58:48.662Z,10.78
2023-01-06T22:01:20.291Z,10.75
2023-01-06T22:03:49.108Z,10.72
2023-01-06T22:06:19.711Z,10.69
2023-01-06T22:08:52.182Z,10.68
2023-01-06T22:11:21.130Z,10.67
2023-01-06T22:13:49.777Z,10.68
2023-01-06T22:16:18.230Z,10.70
2023-01-06T22:18:46.797Z,10.73
2023-01-06T22:21:18.612Z,10.72
2023-01-06T22:23:47.469Z,10.70
2023-01-06T22:26:17.544Z,10.71
2023-01-06T22:28:46.169Z,10.70
2023-01-06T22:31:14.917Z,10.70
2023-01-06T22:33:45.246Z,10.69
2023-01-06T22:36:14.798Z,10.69
2023-01-06T22:38:46.352Z,10.66
2023-01-06T22:41:16.642Z,10.66
2023-01-06T22:43:45.725Z,10.63
2023-01-06T22:46:15.446Z,10.64
2023-01-06T22:48:45.723Z,10.61
2023-01-06T22:51:15.591Z,10.60
2023-01-06T22:53:45.395Z,10.60
2023-01-06T22:56:14.317Z,10.56
2023-01-06T22:58:45.255Z,10.57
2023-01-06T23:01:15.278Z,10.56
2023-01-06T23:03:45.486Z,10.53
2023-01-06T23:06:15.925Z,10.38
2023-01-06T23:08:59.114Z,10.52
2023-01-06T23:11:29.268Z,10.48
2023-01-06T23:14:00.199Z,10.50
2023-01-06T23:16:30.258Z,10.47
2023-01-06T23:18:58.977Z,10.47
2023-01-06T23:21:28.172Z,10.29
2023-01-06T23:23:57.739Z,10.45
2023-01-06T23:26:27.549Z,10.48
2023-01-06T23:28:56.965Z,10.52
2023-01-06T23:31:30.059Z,10.34
2023-01-06T23:34:00.363Z,10.52
2023-01-06T23:36:31.123Z,10.48
2023-01-06T23:39:00.784Z,10.50
2023-01-06T23:41:31.398Z,10.32
2023-01-06T23:44:00.380Z,10.51
2023-01-06T23:46:32.046Z,10.50
2023-01-06T23:49:00.883Z,10.50
2023-01-06T23:51:30.809Z,10.51
2023-01-06T23:54:00.118Z,10.49
2023-01-06T23:56:30.248Z,10.47
2023-01-06T23:59:03.867Z,10.49
